TAF Text Data
IDs:
Format:
Raw Decoded Include METAR

Data at: 1213 UTC 24 May 2022

EHGG 241155Z AUTO 25012KT 200V290 9999 SCT015 BKN019 BKN024 15/10 Q1003 TEMPO 6000 SHRA SCT020CB

TAF EHGG 241110Z 2412/2518 25014KT 9999 BKN018
  TEMPO 2412/2417 24015G25KT 6000 SHRA SCT025CB
  BECMG 2417/2420 21005KT
  PROB30 2500/2506 6000
  BECMG 2506/2509 24012KT
  TEMPO 2511/2515 24015G25KT 6000 SHRA SCT025CB


EHLE 241155Z AUTO 25017KT 220V280 9999 FEW029 16/10 Q1005 NOSIG

TAF EHLE 241113Z 2412/2518 26013KT 9999 SCT020 BKN025
  PROB40
  TEMPO 2412/2415 6000 SHRA SCT020CB BKN022
  BECMG 2418/2421 21005KT
  PROB30 2502/2505 4000 BR MIFG
  BECMG 2509/2512 24016G26KT
  PROB30
  TEMPO 2509/2512 7000 SHRA FEW020CB
  BECMG 2516/2518 23013KT


EDDG 241150Z 22018KT 180V240 9999 VCSH FEW028CB SCT035 17/08 Q1005 TEMPO 23015G30KT

TAF EDDG 241100Z 2412/2512 24015G25KT 9999 SCT035
  PROB40
  TEMPO 2413/2418 25020G30KT SHRA BKN035CB
  PROB30
  TEMPO 2414/2417 TSRA
  BECMG 2414/2417 25010KT
  BECMG 2418/2421 VRB03KT
  BECMG 2506/2510 23011KT